sensor_id;sensor_type;location;lat;lon;timestamp;temperature;humidity
8463;DHT22;4268;52.506;13.462;2023-06-26T00:01:50;21.00;99.90
8463;DHT22;4268;52.506;13.462;2023-06-26T00:04:16;21.00;99.90
8463;DHT22;4268;52.506;13.462;2023-06-26T00:06:42;22.00;99.90
8463;DHT22;4268;52.506;13.462;2023-06-26T00:09:07;21.20;99.90
8463;DHT22;4268;52.506;13.462;2023-06-26T00:11:33;21.00;99.90
8463;DHT22;4268;52.506;13.462;2023-06-26T00:14:00;21.60;99.90
8463;DHT22;4268;52.506;13.462;2023-06-26T00:16:26;22.60;99.90
8463;DHT22;4268;52.506;13.462;2023-06-26T00:18:52;20.90;99.90
8463;DHT22;4268;52.506;13.462;2023-06-26T00:21:18;20.90;99.90
8463;DHT22;4268;52.506;13.462;2023-06-26T00:23:44;21.30;99.90
8463;DHT22;4268;52.506;13.462;2023-06-26T00:26:10;21.10;99.90
8463;DHT22;4268;52.506;13.462;2023-06-26T00:28:36;20.80;99.90
8463;DHT22;4268;52.506;13.462;2023-06-26T00:31:01;20.90;99.90
8463;DHT22;4268;52.506;13.462;2023-06-26T00:33:27;20.70;99.90
8463;DHT22;4268;52.506;13.462;2023-06-26T00:35:52;20.40;99.90
8463;DHT22;4268;52.506;13.462;2023-06-26T00:38:18;19.90;99.90
8463;DHT22;4268;52.506;13.462;2023-06-26T00:40:43;20.70;99.90
8463;DHT22;4268;52.506;13.462;2023-06-26T00:43:09;20.70;99.90
8463;DHT22;4268;52.506;13.462;2023-06-26T00:45:35;20.70;99.90
8463;DHT22;4268;52.506;13.462;2023-06-26T00:48:02;20.60;99.90
8463;DHT22;4268;52.506;13.462;2023-06-26T00:50:28;20.60;99.90
8463;DHT22;4268;52.506;13.462;2023-06-26T00:52:55;20.60;99.90
8463;DHT22;4268;52.506;13.462;2023-06-26T00:55:26;20.70;99.90
8463;DHT22;4268;52.506;13.462;2023-06-26T00:57:52;20.60;99.90
8463;DHT22;4268;52.506;13.462;2023-06-26T01:00:18;20.50;99.90
8463;DHT22;4268;52.506;13.462;2023-06-26T01:02:44;20.50;99.90
8463;DHT22;4268;52.506;13.462;2023-06-26T01:05:10;22.50;99.90
8463;DHT22;4268;52.506;13.462;2023-06-26T01:07:38;20.50;99.90
8463;DHT22;4268;52.506;13.462;2023-06-26T01:10:07;20.50;99.90
8463;DHT22;4268;52.506;13.462;2023-06-26T01:12:33;20.40;99.90
8463;DHT22;4268;52.506;13.462;2023-06-26T01:15:04;20.40;99.90
8463;DHT22;4268;52.506;13.462;2023-06-26T01:17:31;20.50;99.90
8463;DHT22;4268;52.506;13.462;2023-06-26T01:20:02;21.00;99.90
8463;DHT22;4268;52.506;13.462;2023-06-26T01:22:37;20.50;99.90
8463;DHT22;4268;52.506;13.462;2023-06-26T01:27:55;20.50;99.90
8463;DHT22;4268;52.506;13.462;2023-06-26T01:30:25;21.00;99.90
8463;DHT22;4268;52.506;13.462;2023-06-26T01:32:51;20.40;99.90
8463;DHT22;4268;52.506;13.462;2023-06-26T01:35:17;20.90;99.90
8463;DHT22;4268;52.506;13.462;2023-06-26T01:37:43;20.70;99.90
8463;DHT22;4268;52.506;13.462;2023-06-26T01:40:09;20.40;99.90
8463;DHT22;4268;52.506;13.462;2023-06-26T01:42:35;20.40;99.90
8463;DHT22;4268;52.506;13.462;2023-06-26T01:45:12;20.30;99.90
8463;DHT22;4268;52.506;13.462;2023-06-26T01:47:40;19.40;99.90
8463;DHT22;4268;52.506;13.462;2023-06-26T01:50:22;20.30;99.90
8463;DHT22;4268;52.506;13.462;2023-06-26T01:55:36;20.30;99.90
8463;DHT22;4268;52.506;13.462;2023-06-26T01:58:04;20.30;99.90
8463;DHT22;4268;52.506;13.462;2023-06-26T02:00:31;20.30;99.90
8463;DHT22;4268;52.506;13.462;2023-06-26T02:02:57;20.20;99.90
8463;DHT22;4268;52.506;13.462;2023-06-26T02:05:23;20.20;99.90
8463;DHT22;4268;52.506;13.462;2023-06-26T02:07:49;20.20;99.90
8463;DHT22;4268;52.506;13.462;2023-06-26T02:10:15;20.20;99.90
8463;DHT22;4268;52.506;13.462;2023-06-26T02:12:40;20.20;99.90
8463;DHT22;4268;52.506;13.462;2023-06-26T02:15:06;20.30;99.90
8463;DHT22;4268;52.506;13.462;2023-06-26T02:17:32;20.20;99.90
8463;DHT22;4268;52.506;13.462;2023-06-26T02:19:58;20.10;99.90
8463;DHT22;4268;52.506;13.462;2023-06-26T02:22:23;19.50;99.90
8463;DHT22;4268;52.506;13.462;2023-06-26T02:24:49;20.10;99.90
8463;DHT22;4268;52.506;13.462;2023-06-26T02:27:14;21.20;99.90
8463;DHT22;4268;52.506;13.462;2023-06-26T02:29:41;20.70;99.90
8463;DHT22;4268;52.506;13.462;2023-06-26T02:32:07;20.20;99.90
8463;DHT22;4268;52.506;13.462;2023-06-26T02:34:32;20.00;99.90
8463;DHT22;4268;52.506;13.462;2023-06-26T02:36:58;19.80;99.90
8463;DHT22;4268;52.506;13.462;2023-06-26T02:39:26;20.00;99.90
8463;DHT22;4268;52.506;13.462;2023-06-26T02:41:51;19.90;99.90
8463;DHT22;4268;52.506;13.462;2023-06-26T02:44:17;19.90;99.90
8463;DHT22;4268;52.506;13.462;2023-06-26T02:46:42;19.90;99.90
8463;DHT22;4268;52.506;13.462;2023-06-26T02:49:08;19.80;99.90
8463;DHT22;4268;52.506;13.462;2023-06-26T02:51:34;19.90;99.90
8463;DHT22;4268;52.506;13.462;2023-06-26T02:54:00;19.90;99.90
8463;DHT22;4268;52.506;13.462;2023-06-26T02:56:28;20.00;99.90
8463;DHT22;4268;52.506;13.462;2023-06-26T02:58:55;19.90;99.90
8463;DHT22;4268;52.506;13.462;2023-06-26T03:01:20;19.90;99.90
8463;DHT22;4268;52.506;13.462;2023-06-26T03:03:46;19.80;99.90
8463;DHT22;4268;52.506;13.462;2023-06-26T03:06:12;21.20;99.90
8463;DHT22;4268;52.506;13.462;2023-06-26T03:08:38;19.80;99.90
8463;DHT22;4268;52.506;13.462;2023-06-26T03:11:07;21.30;99.90
8463;DHT22;4268;52.506;13.462;2023-06-26T03:13:34;19.80;99.90
8463;DHT22;4268;52.506;13.462;2023-06-26T03:16:00;19.90;99.90
8463;DHT22;4268;52.506;13.462;2023-06-26T03:18:26;19.80;99.90
8463;DHT22;4268;52.506;13.462;2023-06-26T03:20:52;19.70;99.90
8463;DHT22;4268;52.506;13.462;2023-06-26T03:23:19;20.10;99.90
8463;DHT22;4268;52.506;13.462;2023-06-26T03:25:45;19.70;99.90
8463;DHT22;4268;52.506;13.462;2023-06-26T03:28:11;19.70;99.90
8463;DHT22;4268;52.506;13.462;2023-06-26T03:30:37;19.30;99.90
8463;DHT22;4268;52.506;13.462;2023-06-26T03:33:03;19.70;99.90
8463;DHT22;4268;52.506;13.462;2023-06-26T03:35:28;19.70;99.90
8463;DHT22;4268;52.506;13.462;2023-06-26T03:37:54;19.70;99.90
8463;DHT22;4268;52.506;13.462;2023-06-26T03:40:20;20.40;99.90
8463;DHT22;4268;52.506;13.462;2023-06-26T03:42:46;19.70;99.90
8463;DHT22;4268;52.506;13.462;2023-06-26T03:45:11;19.70;99.90
8463;DHT22;4268;52.506;13.462;2023-06-26T03:47:37;19.50;99.90
8463;DHT22;4268;52.506;13.462;2023-06-26T03:50:02;19.70;99.90
8463;DHT22;4268;52.506;13.462;2023-06-26T03:52:28;19.70;99.90
8463;DHT22;4268;52.506;13.462;2023-06-26T03:54:59;19.60;99.90
8463;DHT22;4268;52.506;13.462;2023-06-26T03:57:25;19.80;99.90
8463;DHT22;4268;52.506;13.462;2023-06-26T03:59:51;19.80;99.90
8463;DHT22;4268;52.506;13.462;2023-06-26T04:02:17;20.00;99.90
8463;DHT22;4268;52.506;13.462;2023-06-26T04:04:43;19.70;99.90
8463;DHT22;4268;52.506;13.462;2023-06-26T04:07:10;20.00;99.90
8463;DHT22;4268;52.506;13.462;2023-06-26T04:09:35;20.20;99.90
8463;DHT22;4268;52.506;13.462;2023-06-26T04:12:01;19.90;99.90
8463;DHT22;4268;52.506;13.462;2023-06-26T04:14:27;20.20;99.90
8463;DHT22;4268;52.506;13.462;2023-06-26T04:16:53;20.20;99.90
8463;DHT22;4268;52.506;13.462;2023-06-26T04:19:18;22.30;99.90
8463;DHT22;4268;52.506;13.462;2023-06-26T04:21:44;20.30;99.90
8463;DHT22;4268;52.506;13.462;2023-06-26T04:24:10;20.30;99.90
8463;DHT22;4268;52.506;13.462;2023-06-26T04:26:36;20.40;99.90
8463;DHT22;4268;52.506;13.462;2023-06-26T04:29:02;20.50;99.90
8463;DHT22;4268;52.506;13.462;2023-06-26T04:31:28;20.60;99.90
8463;DHT22;4268;52.506;13.462;2023-06-26T04:33:54;20.60;99.90
8463;DHT22;4268;52.506;13.462;2023-06-26T04:36:20;20.60;99.90
8463;DHT22;4268;52.506;13.462;2023-06-26T04:38:46;20.60;99.90
8463;DHT22;4268;52.506;13.462;2023-06-26T04:41:13;20.70;99.90
8463;DHT22;4268;52.506;13.462;2023-06-26T04:43:39;20.70;99.90
8463;DHT22;4268;52.506;13.462;2023-06-26T04:46:05;20.70;99.90
8463;DHT22;4268;52.506;13.462;2023-06-26T04:48:31;20.80;99.90
8463;DHT22;4268;52.506;13.462;2023-06-26T04:50:57;20.80;99.90
8463;DHT22;4268;52.506;13.462;2023-06-26T04:53:24;20.90;99.90
8463;DHT22;4268;52.506;13.462;2023-06-26T04:55:51;20.90;99.90
8463;DHT22;4268;52.506;13.462;2023-06-26T04:58:16;21.00;99.90
8463;DHT22;4268;52.506;13.462;2023-06-26T05:00:42;21.00;99.90
8463;DHT22;4268;52.506;13.462;2023-06-26T05:03:12;21.10;99.90
8463;DHT22;4268;52.506;13.462;2023-06-26T05:05:38;21.20;99.90
8463;DHT22;4268;52.506;13.462;2023-06-26T05:08:16;21.30;99.90
8463;DHT22;4268;52.506;13.462;2023-06-26T05:10:42;21.40;99.90
8463;DHT22;4268;52.506;13.462;2023-06-26T05:13:08;21.50;99.90
8463;DHT22;4268;52.506;13.462;2023-06-26T05:15:33;21.60;99.90
8463;DHT22;4268;52.506;13.462;2023-06-26T05:17:59;21.70;99.90
8463;DHT22;4268;52.506;13.462;2023-06-26T05:20:24;21.80;99.90
8463;DHT22;4268;52.506;13.462;2023-06-26T05:22:50;22.00;99.90
8463;DHT22;4268;52.506;13.462;2023-06-26T05:25:16;22.20;99.90
8463;DHT22;4268;52.506;13.462;2023-06-26T05:27:43;22.20;99.90
8463;DHT22;4268;52.506;13.462;2023-06-26T05:30:09;22.30;99.90
8463;DHT22;4268;52.506;13.462;2023-06-26T05:32:35;22.40;99.90
8463;DHT22;4268;52.506;13.462;2023-06-26T05:35:03;22.40;99.90
8463;DHT22;4268;52.506;13.462;2023-06-26T05:37:31;22.50;99.90
8463;DHT22;4268;52.506;13.462;2023-06-26T05:39:56;22.60;99.90
8463;DHT22;4268;52.506;13.462;2023-06-26T05:42:22;22.70;99.90
8463;DHT22;4268;52.506;13.462;2023-06-26T05:44:48;22.80;99.90
8463;DHT22;4268;52.506;13.462;2023-06-26T05:47:13;22.80;99.90
8463;DHT22;4268;52.506;13.462;2023-06-26T05:49:39;22.90;99.90
8463;DHT22;4268;52.506;13.462;2023-06-26T05:52:04;22.90;99.90
8463;DHT22;4268;52.506;13.462;2023-06-26T05:54:30;23.00;99.90
8463;DHT22;4268;52.506;13.462;2023-06-26T05:56:57;23.10;99.90
8463;DHT22;4268;52.506;13.462;2023-06-26T05:59:26;23.10;99.90
8463;DHT22;4268;52.506;13.462;2023-06-26T06:01:52;23.30;99.90
8463;DHT22;4268;52.506;13.462;2023-06-26T06:04:17;24.00;99.90
8463;DHT22;4268;52.506;13.462;2023-06-26T06:06:43;25.10;99.90
8463;DHT22;4268;52.506;13.462;2023-06-26T06:09:08;26.40;99.90
8463;DHT22;4268;52.506;13.462;2023-06-26T06:11:34;27.60;99.90
8463;DHT22;4268;52.506;13.462;2023-06-26T06:13:59;28.90;99.90
8463;DHT22;4268;52.506;13.462;2023-06-26T06:16:25;29.90;98.40
8463;DHT22;4268;52.506;13.462;2023-06-26T06:18:51;30.80;95.70
8463;DHT22;4268;52.506;13.462;2023-06-26T06:21:16;31.40;93.80
8463;DHT22;4268;52.506;13.462;2023-06-26T06:23:42;32.10;91.80
8463;DHT22;4268;52.506;13.462;2023-06-26T06:26:07;32.80;90.20
8463;DHT22;4268;52.506;13.462;2023-06-26T06:28:33;33.10;86.40
8463;DHT22;4268;52.506;13.462;2023-06-26T06:30:59;33.70;84.10
8463;DHT22;4268;52.506;13.462;2023-06-26T06:33:24;34.10;81.80
8463;DHT22;4268;52.506;13.462;2023-06-26T06:35:49;34.40;79.80
8463;DHT22;4268;52.506;13.462;2023-06-26T06:38:15;34.80;77.50
8463;DHT22;4268;52.506;13.462;2023-06-26T06:40:40;35.00;76.10
8463;DHT22;4268;52.506;13.462;2023-06-26T06:43:06;35.40;73.50
8463;DHT22;4268;52.506;13.462;2023-06-26T06:45:31;35.30;72.00
8463;DHT22;4268;52.506;13.462;2023-06-26T06:47:57;35.50;71.80
8463;DHT22;4268;52.506;13.462;2023-06-26T06:50:22;36.00;69.90
8463;DHT22;4268;52.506;13.462;2023-06-26T06:52:48;35.90;69.10
8463;DHT22;4268;52.506;13.462;2023-06-26T06:55:13;36.20;68.90
8463;DHT22;4268;52.506;13.462;2023-06-26T06:57:39;36.20;68.20
8463;DHT22;4268;52.506;13.462;2023-06-26T07:00:10;35.80;68.00
8463;DHT22;4268;52.506;13.462;2023-06-26T07:02:41;36.00;67.50
8463;DHT22;4268;52.506;13.462;2023-06-26T07:05:07;36.00;66.10
8463;DHT22;4268;52.506;13.462;2023-06-26T07:07:33;35.80;66.10
8463;DHT22;4268;52.506;13.462;2023-06-26T07:10:01;35.70;66.70
8463;DHT22;4268;52.506;13.462;2023-06-26T07:12:27;35.20;66.90
8463;DHT22;4268;52.506;13.462;2023-06-26T07:14:52;34.50;69.10
8463;DHT22;4268;52.506;13.462;2023-06-26T07:17:19;34.00;70.20
8463;DHT22;4268;52.506;13.462;2023-06-26T07:19:45;33.80;70.50
8463;DHT22;4268;52.506;13.462;2023-06-26T07:22:10;33.40;70.10
8463;DHT22;4268;52.506;13.462;2023-06-26T07:24:36;32.90;71.30
8463;DHT22;4268;52.506;13.462;2023-06-26T07:27:02;32.80;72.70
8463;DHT22;4268;52.506;13.462;2023-06-26T07:29:27;32.70;72.20
8463;DHT22;4268;52.506;13.462;2023-06-26T07:31:53;32.80;72.20
8463;DHT22;4268;52.506;13.462;2023-06-26T07:34:18;32.40;72.20
8463;DHT22;4268;52.506;13.462;2023-06-26T07:36:43;32.10;72.90
8463;DHT22;4268;52.506;13.462;2023-06-26T07:39:09;32.10;73.80
8463;DHT22;4268;52.506;13.462;2023-06-26T07:41:34;32.20;74.40
8463;DHT22;4268;52.506;13.462;2023-06-26T07:44:00;32.20;73.30
8463;DHT22;4268;52.506;13.462;2023-06-26T07:46:25;32.30;73.00
8463;DHT22;4268;52.506;13.462;2023-06-26T07:48:51;32.10;73.10
8463;DHT22;4268;52.506;13.462;2023-06-26T07:51:16;31.90;73.20
8463;DHT22;4268;52.506;13.462;2023-06-26T07:53:42;31.90;73.00
8463;DHT22;4268;52.506;13.462;2023-06-26T07:56:07;31.70;71.90
8463;DHT22;4268;52.506;13.462;2023-06-26T07:58:33;31.40;72.80
8463;DHT22;4268;52.506;13.462;2023-06-26T08:00:58;31.60;72.40
8463;DHT22;4268;52.506;13.462;2023-06-26T08:03:24;31.00;73.10
8463;DHT22;4268;52.506;13.462;2023-06-26T08:05:49;30.70;73.60
8463;DHT22;4268;52.506;13.462;2023-06-26T08:08:15;31.00;74.00
8463;DHT22;4268;52.506;13.462;2023-06-26T08:10:40;31.40;73.30
8463;DHT22;4268;52.506;13.462;2023-06-26T08:13:06;31.60;72.90
8463;DHT22;4268;52.506;13.462;2023-06-26T08:15:31;31.30;72.10
8463;DHT22;4268;52.506;13.462;2023-06-26T08:17:57;31.70;70.90
8463;DHT22;4268;52.506;13.462;2023-06-26T08:20:22;31.60;70.50
8463;DHT22;4268;52.506;13.462;2023-06-26T08:22:48;31.50;70.50
8463;DHT22;4268;52.506;13.462;2023-06-26T08:25:16;31.50;70.10
8463;DHT22;4268;52.506;13.462;2023-06-26T08:27:42;31.40;70.20
8463;DHT22;4268;52.506;13.462;2023-06-26T08:30:08;31.40;69.90
8463;DHT22;4268;52.506;13.462;2023-06-26T08:32:33;31.50;68.80
8463;DHT22;4268;52.506;13.462;2023-06-26T08:34:59;31.40;68.60
8463;DHT22;4268;52.506;13.462;2023-06-26T08:37:25;31.50;68.70
8463;DHT22;4268;52.506;13.462;2023-06-26T08:39:50;31.40;67.10
8463;DHT22;4268;52.506;13.462;2023-06-26T08:42:16;31.40;68.10
8463;DHT22;4268;52.506;13.462;2023-06-26T08:44:41;31.50;68.50
8463;DHT22;4268;52.506;13.462;2023-06-26T08:47:07;31.10;67.80
8463;DHT22;4268;52.506;13.462;2023-06-26T08:49:44;31.10;67.40
8463;DHT22;4268;52.506;13.462;2023-06-26T08:52:22;31.00;65.50
8463;DHT22;4268;52.506;13.462;2023-06-26T08:54:54;30.90;66.30
8463;DHT22;4268;52.506;13.462;2023-06-26T08:57:23;31.00;65.90
8463;DHT22;4268;52.506;13.462;2023-06-26T08:59:48;31.20;65.10
8463;DHT22;4268;52.506;13.462;2023-06-26T09:02:14;31.00;64.60
8463;DHT22;4268;52.506;13.462;2023-06-26T09:04:40;30.90;64.50
8463;DHT22;4268;52.506;13.462;2023-06-26T09:07:07;30.90;65.10
8463;DHT22;4268;52.506;13.462;2023-06-26T09:09:32;30.90;65.40
8463;DHT22;4268;52.506;13.462;2023-06-26T09:11:58;30.80;66.70
8463;DHT22;4268;52.506;13.462;2023-06-26T09:14:23;30.80;66.30
8463;DHT22;4268;52.506;13.462;2023-06-26T09:16:49;30.70;66.40
8463;DHT22;4268;52.506;13.462;2023-06-26T09:19:15;30.40;65.90
8463;DHT22;4268;52.506;13.462;2023-06-26T09:21:42;30.40;66.40
8463;DHT22;4268;52.506;13.462;2023-06-26T09:24:08;30.20;66.70
8463;DHT22;4268;52.506;13.462;2023-06-26T09:26:38;30.20;67.70
8463;DHT22;4268;52.506;13.462;2023-06-26T09:29:04;30.20;67.40
8463;DHT22;4268;52.506;13.462;2023-06-26T09:31:30;30.10;67.40
8463;DHT22;4268;52.506;13.462;2023-06-26T09:33:59;30.00;67.70
8463;DHT22;4268;52.506;13.462;2023-06-26T09:36:28;29.60;67.10
8463;DHT22;4268;52.506;13.462;2023-06-26T09:38:54;28.40;66.80
8463;DHT22;4268;52.506;13.462;2023-06-26T09:41:20;29.30;68.30
8463;DHT22;4268;52.506;13.462;2023-06-26T09:43:47;29.60;69.20
8463;DHT22;4268;52.506;13.462;2023-06-26T09:46:31;31.10;71.00
8463;DHT22;4268;52.506;13.462;2023-06-26T09:49:05;30.90;70.30
8463;DHT22;4268;52.506;13.462;2023-06-26T09:51:32;29.50;69.60
8463;DHT22;4268;52.506;13.462;2023-06-26T09:53:58;29.40;69.70
8463;DHT22;4268;52.506;13.462;2023-06-26T09:56:24;29.40;69.20
8463;DHT22;4268;52.506;13.462;2023-06-26T09:58:49;29.40;69.40
8463;DHT22;4268;52.506;13.462;2023-06-26T10:01:17;29.50;70.10
8463;DHT22;4268;52.506;13.462;2023-06-26T10:03:43;29.50;69.30
8463;DHT22;4268;52.506;13.462;2023-06-26T10:06:09;30.90;70.40
8463;DHT22;4268;52.506;13.462;2023-06-26T10:08:37;29.60;69.50
8463;DHT22;4268;52.506;13.462;2023-06-26T10:11:04;29.50;69.90
8463;DHT22;4268;52.506;13.462;2023-06-26T10:13:38;30.30;70.20
8463;DHT22;4268;52.506;13.462;2023-06-26T10:16:07;29.70;69.80
8463;DHT22;4268;52.506;13.462;2023-06-26T10:18:36;29.70;69.80
8463;DHT22;4268;52.506;13.462;2023-06-26T10:21:05;31.20;70.50
8463;DHT22;4268;52.506;13.462;2023-06-26T10:23:32;29.70;69.10
8463;DHT22;4268;52.506;13.462;2023-06-26T10:26:00;29.90;69.60
8463;DHT22;4268;52.506;13.462;2023-06-26T10:28:28;29.90;70.20
8463;DHT22;4268;52.506;13.462;2023-06-26T10:30:55;29.90;70.30
8463;DHT22;4268;52.506;13.462;2023-06-26T10:33:22;29.80;70.20
8463;DHT22;4268;52.506;13.462;2023-06-26T10:35:48;29.50;69.80
8463;DHT22;4268;52.506;13.462;2023-06-26T10:38:14;30.30;70.10
8463;DHT22;4268;52.506;13.462;2023-06-26T10:40:41;29.90;70.10
8463;DHT22;4268;52.506;13.462;2023-06-26T10:43:08;28.90;69.50
8463;DHT22;4268;52.506;13.462;2023-06-26T10:45:34;30.10;70.30
8463;DHT22;4268;52.506;13.462;2023-06-26T10:48:01;29.90;69.60
8463;DHT22;4268;52.506;13.462;2023-06-26T10:50:27;30.00;70.20
8463;DHT22;4268;52.506;13.462;2023-06-26T10:53:14;30.10;70.00
8463;DHT22;4268;52.506;13.462;2023-06-26T10:55:55;30.00;70.00
8463;DHT22;4268;52.506;13.462;2023-06-26T11:03:37;30.20;68.80
8463;DHT22;4268;52.506;13.462;2023-06-26T11:06:13;30.40;67.80
8463;DHT22;4268;52.506;13.462;2023-06-26T11:08:47;29.10;66.70
8463;DHT22;4268;52.506;13.462;2023-06-26T11:11:13;30.20;67.60
8463;DHT22;4268;52.506;13.462;2023-06-26T11:13:42;31.50;68.70
8463;DHT22;4268;52.506;13.462;2023-06-26T11:16:11;30.20;67.60
8463;DHT22;4268;52.506;13.462;2023-06-26T11:18:37;31.30;67.50
8463;DHT22;4268;52.506;13.462;2023-06-26T11:21:11;31.40;68.60
8463;DHT22;4268;52.506;13.462;2023-06-26T11:23:39;30.30;67.70
8463;DHT22;4268;52.506;13.462;2023-06-26T11:26:19;30.20;67.40
8463;DHT22;4268;52.506;13.462;2023-06-26T11:28:51;30.80;68.10
8463;DHT22;4268;52.506;13.462;2023-06-26T11:31:27;30.40;67.80
8463;DHT22;4268;52.506;13.462;2023-06-26T11:33:54;30.40;67.80
8463;DHT22;4268;52.506;13.462;2023-06-26T11:36:23;30.40;67.80
8463;DHT22;4268;52.506;13.462;2023-06-26T11:38:54;30.50;68.00
8463;DHT22;4268;52.506;13.462;2023-06-26T11:41:21;30.60;67.90
8463;DHT22;4268;52.506;13.462;2023-06-26T11:43:47;30.60;67.90
8463;DHT22;4268;52.506;13.462;2023-06-26T11:46:13;30.70;67.20
8463;DHT22;4268;52.506;13.462;2023-06-26T11:48:41;30.80;67.00
8463;DHT22;4268;52.506;13.462;2023-06-26T11:51:06;30.00;66.30
8463;DHT22;4268;52.506;13.462;2023-06-26T11:53:39;30.80;67.40
8463;DHT22;4268;52.506;13.462;2023-06-26T11:56:14;31.40;67.90
8463;DHT22;4268;52.506;13.462;2023-06-26T11:59:05;30.70;66.00
8463;DHT22;4268;52.506;13.462;2023-06-26T12:01:44;30.60;66.40
8463;DHT22;4268;52.506;13.462;2023-06-26T12:04:11;30.70;66.80
8463;DHT22;4268;52.506;13.462;2023-06-26T12:06:43;30.70;66.30
8463;DHT22;4268;52.506;13.462;2023-06-26T12:09:11;30.70;65.80
8463;DHT22;4268;52.506;13.462;2023-06-26T12:11:38;31.30;66.30
8463;DHT22;4268;52.506;13.462;2023-06-26T12:14:05;30.90;65.80
8463;DHT22;4268;52.506;13.462;2023-06-26T12:16:33;31.10;65.70
8463;DHT22;4268;52.506;13.462;2023-06-26T12:19:00;30.70;65.80
8463;DHT22;4268;52.506;13.462;2023-06-26T12:24:09;30.70;65.80
8463;DHT22;4268;52.506;13.462;2023-06-26T12:26:35;30.90;65.60
8463;DHT22;4268;52.506;13.462;2023-06-26T12:29:11;32.40;66.70
8463;DHT22;4268;52.506;13.462;2023-06-26T12:31:41;30.50;64.90
8463;DHT22;4268;52.506;13.462;2023-06-26T12:34:14;31.20;66.00
8463;DHT22;4268;52.506;13.462;2023-06-26T12:36:47;31.10;65.40
8463;DHT22;4268;52.506;13.462;2023-06-26T12:39:19;31.60;65.80
8463;DHT22;4268;52.506;13.462;2023-06-26T12:41:52;31.60;65.10
8463;DHT22;4268;52.506;13.462;2023-06-26T12:44:29;31.10;63.60
8463;DHT22;4268;52.506;13.462;2023-06-26T12:46:57;31.40;64.50
8463;DHT22;4268;52.506;13.462;2023-06-26T12:49:34;31.20;64.90
8463;DHT22;4268;52.506;13.462;2023-06-26T12:52:01;31.00;65.40
8463;DHT22;4268;52.506;13.462;2023-06-26T12:54:27;30.50;65.50
8463;DHT22;4268;52.506;13.462;2023-06-26T12:56:53;30.80;65.60
8463;DHT22;4268;52.506;13.462;2023-06-26T12:59:22;30.90;65.90
8463;DHT22;4268;52.506;13.462;2023-06-26T13:01:47;31.00;65.90
8463;DHT22;4268;52.506;13.462;2023-06-26T13:04:13;31.10;66.30
8463;DHT22;4268;52.506;13.462;2023-06-26T13:06:39;30.80;66.00
8463;DHT22;4268;52.506;13.462;2023-06-26T13:09:04;30.80;66.70
8463;DHT22;4268;52.506;13.462;2023-06-26T13:11:31;30.40;66.80
8463;DHT22;4268;52.506;13.462;2023-06-26T13:13:57;30.60;66.30
8463;DHT22;4268;52.506;13.462;2023-06-26T13:16:22;30.40;66.60
8463;DHT22;4268;52.506;13.462;2023-06-26T13:18:48;30.70;66.80
8463;DHT22;4268;52.506;13.462;2023-06-26T13:21:14;31.40;67.50
8463;DHT22;4268;52.506;13.462;2023-06-26T13:23:40;30.70;67.20
8463;DHT22;4268;52.506;13.462;2023-06-26T13:26:05;31.40;67.80
8463;DHT22;4268;52.506;13.462;2023-06-26T13:28:31;31.00;67.40
8463;DHT22;4268;52.506;13.462;2023-06-26T13:30:57;30.50;66.90
8463;DHT22;4268;52.506;13.462;2023-06-26T13:33:23;30.60;67.30
8463;DHT22;4268;52.506;13.462;2023-06-26T13:35:51;30.50;67.10
8463;DHT22;4268;52.506;13.462;2023-06-26T13:38:18;30.10;66.60
8463;DHT22;4268;52.506;13.462;2023-06-26T13:40:44;30.30;67.10
8463;DHT22;4268;52.506;13.462;2023-06-26T13:43:09;30.40;67.20
8463;DHT22;4268;52.506;13.462;2023-06-26T13:45:35;30.30;67.70
8463;DHT22;4268;52.506;13.462;2023-06-26T13:48:00;30.10;67.60
8463;DHT22;4268;52.506;13.462;2023-06-26T13:50:26;30.20;68.20
8463;DHT22;4268;52.506;13.462;2023-06-26T13:52:51;29.30;67.60
8463;DHT22;4268;52.506;13.462;2023-06-26T13:55:17;32.00;69.80
8463;DHT22;4268;52.506;13.462;2023-06-26T13:57:43;30.10;68.60
8463;DHT22;4268;52.506;13.462;2023-06-26T14:00:09;30.10;67.70
8463;DHT22;4268;52.506;13.462;2023-06-26T14:02:37;30.10;68.10
8463;DHT22;4268;52.506;13.462;2023-06-26T14:05:02;30.10;68.60
8463;DHT22;4268;52.506;13.462;2023-06-26T14:07:29;30.20;68.80
8463;DHT22;4268;52.506;13.462;2023-06-26T14:09:54;30.20;68.90
8463;DHT22;4268;52.506;13.462;2023-06-26T14:12:20;30.10;68.70
8463;DHT22;4268;52.506;13.462;2023-06-26T14:14:45;30.00;68.90
8463;DHT22;4268;52.506;13.462;2023-06-26T14:17:12;29.90;69.10
8463;DHT22;4268;52.506;13.462;2023-06-26T14:19:41;29.80;69.70
8463;DHT22;4268;52.506;13.462;2023-06-26T14:22:07;29.70;70.00
8463;DHT22;4268;52.506;13.462;2023-06-26T14:24:33;29.60;70.20
8463;DHT22;4268;52.506;13.462;2023-06-26T14:26:58;29.90;71.10
8463;DHT22;4268;52.506;13.462;2023-06-26T14:29:25;29.50;71.40
8463;DHT22;4268;52.506;13.462;2023-06-26T14:31:51;29.20;77.30
8463;DHT22;4268;52.506;13.462;2023-06-26T14:34:17;30.10;87.70
8463;DHT22;4268;52.506;13.462;2023-06-26T14:36:44;27.70;92.90
8463;DHT22;4268;52.506;13.462;2023-06-26T14:39:11;27.00;98.10
8463;DHT22;4268;52.506;13.462;2023-06-26T14:41:38;26.30;99.90
8463;DHT22;4268;52.506;13.462;2023-06-26T14:44:19;25.20;99.90
8463;DHT22;4268;52.506;13.462;2023-06-26T14:46:51;23.70;99.90
8463;DHT22;4268;52.506;13.462;2023-06-26T14:49:16;23.70;99.90
8463;DHT22;4268;52.506;13.462;2023-06-26T14:51:42;25.40;99.90
8463;DHT22;4268;52.506;13.462;2023-06-26T14:54:07;22.90;99.90
8463;DHT22;4268;52.506;13.462;2023-06-26T14:56:34;22.80;99.90
8463;DHT22;4268;52.506;13.462;2023-06-26T14:58:59;22.50;99.90
8463;DHT22;4268;52.506;13.462;2023-06-26T15:01:25;22.40;99.90
8463;DHT22;4268;52.506;13.462;2023-06-26T15:03:50;22.30;99.90
8463;DHT22;4268;52.506;13.462;2023-06-26T15:06:16;22.30;99.90
8463;DHT22;4268;52.506;13.462;2023-06-26T15:08:41;22.20;99.90
8463;DHT22;4268;52.506;13.462;2023-06-26T15:11:07;22.20;99.90
8463;DHT22;4268;52.506;13.462;2023-06-26T15:13:32;22.10;99.90
8463;DHT22;4268;52.506;13.462;2023-06-26T15:15:58;22.20;99.90
8463;DHT22;4268;52.506;13.462;2023-06-26T15:18:23;22.20;99.90
8463;DHT22;4268;52.506;13.462;2023-06-26T15:20:49;22.30;99.90
8463;DHT22;4268;52.506;13.462;2023-06-26T15:23:14;22.20;99.90
8463;DHT22;4268;52.506;13.462;2023-06-26T15:25:40;22.10;99.90
8463;DHT22;4268;52.506;13.462;2023-06-26T15:28:06;22.10;99.90
8463;DHT22;4268;52.506;13.462;2023-06-26T15:30:32;22.00;99.90
8463;DHT22;4268;52.506;13.462;2023-06-26T15:32:58;21.90;99.90
8463;DHT22;4268;52.506;13.462;2023-06-26T15:35:24;21.90;99.90
8463;DHT22;4268;52.506;13.462;2023-06-26T15:37:49;21.90;99.90
8463;DHT22;4268;52.506;13.462;2023-06-26T15:40:15;21.80;99.90
8463;DHT22;4268;52.506;13.462;2023-06-26T15:42:51;21.90;99.90
8463;DHT22;4268;52.506;13.462;2023-06-26T15:45:18;21.90;99.90
8463;DHT22;4268;52.506;13.462;2023-06-26T15:47:44;21.90;99.90
8463;DHT22;4268;52.506;13.462;2023-06-26T15:50:10;21.90;99.90
8463;DHT22;4268;52.506;13.462;2023-06-26T15:52:37;21.90;99.90
8463;DHT22;4268;52.506;13.462;2023-06-26T15:55:03;21.90;99.90
8463;DHT22;4268;52.506;13.462;2023-06-26T15:57:30;21.90;99.90